Time;durP1;ratioP1;P1;durP2;ratioP2;P2;SDS_P1;SDS_P2;PMS_P1;PMS_P2;Temp;Humidity;BMP_temperature;BMP_pressure;BME280_temperature;BME280_humidity;BME280_pressure;Samples;Min_cycle;Max_cycle;Signal;HPM_P1;HPM_P2
2023/01/14 00:01:15;;;;;;;11.05;2.65;;;27.90;85.70;;;;;;5070819;28;20434;-68
2023/01/14 00:03:45;;;;;;;9.38;1.98;;;27.80;91.10;;;;;;5068673;28;20028;-67
2023/01/14 00:06:17;;;;;;;5.65;1.50;;;27.70;91.60;;;;;;5070900;28;20021;-68
2023/01/14 00:08:45;;;;;;;12.02;2.05;;;27.30;92.80;;;;;;5071156;28;20103;-68
2023/01/14 00:11:14;;;;;;;6.40;1.15;;;27.30;94.00;;;;;;5070420;28;20032;-68
2023/01/14 00:13:42;;;;;;;6.88;1.88;;;27.40;93.80;;;;;;5069915;28;20052;-67
2023/01/14 00:16:14;;;;;;;9.38;1.50;;;27.20;93.80;;;;;;5069805;28;20048;-68
2023/01/14 00:18:42;;;;;;;4.32;1.10;;;27.40;94.10;;;;;;5070177;28;20025;-67
2023/01/14 00:21:14;;;;;;;6.03;1.63;;;27.50;94.20;;;;;;5070053;28;20092;-68
2023/01/14 00:23:42;;;;;;;5.95;1.27;;;28.00;91.80;;;;;;5069462;28;20024;-67
2023/01/14 00:26:17;;;;;;;7.15;1.13;;;28.10;91.60;;;;;;5070727;28;20032;-68
2023/01/14 00:28:51;;;;;;;6.10;1.20;;;28.00;91.20;;;;;;5068547;28;20029;-67
2023/01/14 00:31:20;;;;;;;;;;;28.00;91.30;;;;;;5069467;28;20032;-67
2023/01/14 00:33:48;;;;;;;4.22;1.30;;;28.40;90.70;;;;;;5070407;28;19908;-66
2023/01/14 00:36:18;;;;;;;4.75;1.23;;;28.40;90.60;;;;;;5069519;28;20035;-66
2023/01/14 00:38:45;;;;;;;9.57;2.03;;;28.30;91.40;;;;;;5068972;28;20509;-67
2023/01/14 00:41:13;;;;;;;5.50;1.80;;;28.60;90.30;;;;;;5069938;28;20035;-67
2023/01/14 00:43:46;;;;;;;4.95;1.35;;;28.70;89.00;;;;;;5067421;28;20025;-66
2023/01/14 00:46:15;;;;;;;5.45;1.48;;;28.60;88.40;;;;;;5069423;28;20032;-68
2023/01/14 00:48:43;;;;;;;3.95;1.08;;;28.50;88.30;;;;;;5069840;28;20461;-67
2023/01/14 00:51:12;;;;;;;4.68;1.23;;;28.40;86.40;;;;;;5069693;28;20064;-68
2023/01/14 00:53:45;;;;;;;6.70;1.38;;;28.20;88.60;;;;;;5068392;28;20032;-66
2023/01/14 00:56:13;;;;;;;4.82;1.33;;;28.30;90.40;;;;;;5068604;28;20048;-66
2023/01/14 00:58:41;;;;;;;11.55;1.55;;;28.20;90.10;;;;;;5069256;28;20029;-66
2023/01/14 01:01:09;;;;;;;6.97;1.67;;;28.40;85.90;;;;;;5069226;28;20024;-66
2023/01/14 01:03:41;;;;;;;4.45;1.33;;;28.60;84.90;;;;;;5069838;28;20059;-65
2023/01/14 01:06:09;;;;;;;5.38;1.50;;;28.90;87.10;;;;;;5068906;28;20024;-66
2023/01/14 01:08:37;;;;;;;5.45;1.35;;;29.10;83.30;;;;;;5068760;28;20500;-68
2023/01/14 01:11:05;;;;;;;4.78;1.17;;;29.30;80.20;;;;;;5072084;28;20032;-66
2023/01/14 01:13:33;;;;;;;3.33;0.90;;;29.40;79.40;;;;;;5065867;28;20024;-66
2023/01/14 01:16:03;;;;;;;3.88;1.00;;;29.80;78.50;;;;;;5066762;28;20029;-65
2023/01/14 01:18:31;;;;;;;5.30;1.10;;;29.80;73.10;;;;;;5068532;28;20052;-65
2023/01/14 01:21:03;;;;;;;2.40;1.10;;;29.60;71.80;;;;;;5068769;28;20025;-65
2023/01/14 01:23:31;;;;;;;2.72;1.10;;;29.40;71.50;;;;;;5068929;28;20032;-64
2023/01/14 01:26:05;;;;;;;7.57;1.67;;;29.50;71.00;;;;;;5068556;28;20032;-66
2023/01/14 01:28:33;;;;;;;3.40;1.30;;;29.50;71.80;;;;;;5065785;28;20020;-65
2023/01/14 01:31:10;;;;;;;2.95;1.42;;;29.60;70.40;;;;;;5068627;28;20166;-65
2023/01/14 01:33:38;;;;;;;3.10;1.00;;;29.80;69.60;;;;;;5065935;28;20051;-66
2023/01/14 01:36:12;;;;;;;3.33;0.90;;;29.90;66.70;;;;;;5065605;28;20031;-66
2023/01/14 01:38:40;;;;;;;5.97;1.60;;;29.70;66.70;;;;;;5065236;28;20032;-65
2023/01/14 01:41:13;;;;;;;3.47;0.90;;;29.70;68.60;;;;;;5065760;28;20016;-63
2023/01/14 01:44:06;;;;;;;6.40;1.30;;;29.70;69.60;;;;;;5069159;28;20032;-66
2023/01/14 01:46:33;;;;;;;3.25;1.00;;;29.60;69.60;;;;;;5049605;28;20025;-66
2023/01/14 01:49:09;;;;;;;1.48;0.80;;;29.30;67.50;;;;;;5054465;28;20359;-66
2023/01/14 01:51:52;;;;;;;7.35;1.17;;;29.00;69.10;;;;;;5068254;28;20040;-66
2023/01/14 01:54:23;;;;;;;4.88;1.00;;;28.70;75.00;;;;;;5069642;28;20095;-66
2023/01/14 01:56:51;;;;;;;3.35;1.02;;;28.20;79.40;;;;;;5069001;28;20303;-65
2023/01/14 01:59:23;;;;;;;7.80;1.75;;;28.10;82.10;;;;;;5069513;28;20440;-65
2023/01/14 02:01:53;;;;;;;9.02;2.00;;;27.90;84.00;;;;;;5067477;28;20085;-65
2023/01/14 02:04:20;;;;;;;3.17;1.30;;;27.80;83.80;;;;;;5067460;28;20107;-66
2023/01/14 02:06:48;;;;;;;7.18;1.40;;;27.70;84.80;;;;;;5067888;28;20024;-65
2023/01/14 02:09:17;;;;;;;6.85;1.40;;;27.70;86.50;;;;;;5067681;28;20032;-65
2023/01/14 02:12:07;;;;;;;6.78;1.52;;;27.60;84.20;;;;;;5069034;28;20037;-65
2023/01/14 02:14:56;;;;;;;3.00;1.38;;;27.40;84.70;;;;;;5072801;28;20028;-65
2023/01/14 02:17:45;;;;;;;6.60;1.70;;;27.40;86.50;;;;;;5073147;28;20048;-65
2023/01/14 02:20:34;;;;;;;5.78;1.83;;;27.40;86.00;;;;;;5067146;28;20389;-65
2023/01/14 02:23:44;;;;;;;6.15;1.55;;;27.60;86.50;;;;;;5073215;28;20447;-65
2023/01/14 02:26:29;;;;;;;3.25;1.30;;;27.70;84.30;;;;;;5073182;28;20032;-65
2023/01/14 02:29:14;;;;;;;2.85;1.30;;;27.80;84.20;;;;;;5072802;28;20103;-65
2023/01/14 02:31:48;;;;;;;3.88;1.58;;;27.60;83.60;;;;;;5072549;28;20032;-65
2023/01/14 02:34:47;;;;;;;7.07;3.78;;;27.70;84.90;;;;;;5072981;28;20051;-65
2023/01/14 02:37:24;;;;;;;3.75;1.38;;;27.90;84.20;;;;;;5070843;28;20032;-66
2023/01/14 02:40:09;;;;;;;5.75;1.58;;;28.30;84.30;;;;;;5072362;28;20021;-66
2023/01/14 02:45:48;;;;;;;3.97;0.90;;;28.80;79.90;;;;;;5072508;28;20166;-66
2023/01/14 02:48:17;;;;;;;5.35;1.13;;;29.10;78.80;;;;;;5072405;28;20137;-65
2023/01/14 02:50:46;;;;;;;7.43;1.83;;;29.20;78.10;;;;;;5083411;28;20036;-66
2023/01/14 02:53:19;;;;;;;4.78;1.38;;;29.30;77.90;;;;;;5071908;28;20436;-66
2023/01/14 02:55:47;;;;;;;7.40;2.30;;;28.90;78.40;;;;;;5071843;28;20037;-65
2023/01/14 02:58:36;;;;;;;5.00;1.23;;;28.50;80.70;;;;;;5072468;28;20033;-66
2023/01/14 03:01:12;;;;;;;5.78;1.10;;;28.50;80.90;;;;;;5072585;28;20021;-67
2023/01/14 03:03:57;;;;;;;6.28;1.10;;;28.50;79.90;;;;;;5052475;28;20121;-65
2023/01/14 03:06:31;;;;;;;6.00;2.00;;;28.70;80.90;;;;;;5052398;28;20225;-65
2023/01/14 03:09:07;;;;;;;;;;;29.10;80.30;;;;;;5067314;28;20598;-66
2023/01/14 03:11:57;;;;;;;4.18;1.33;;;29.60;77.40;;;;;;5070938;28;20007;-67
2023/01/14 03:14:41;;;;;;;6.75;1.80;;;30.40;76.80;;;;;;5067682;28;20052;-66
2023/01/14 03:17:30;;;;;;;4.10;1.67;;;30.90;73.50;;;;;;5067036;28;20024;-66
2023/01/14 03:20:10;;;;;;;4.53;2.15;;;31.20;71.10;;;;;;5071291;28;20033;-65
2023/01/14 03:22:38;;;;;;;3.85;1.20;;;31.00;70.00;;;;;;5072130;28;20044;-66
2023/01/14 03:25:07;;;;;;;3.70;1.40;;;30.60;71.40;;;;;;5071110;28;20031;-66
2023/01/14 03:27:38;;;;;;;6.55;2.65;;;29.90;72.10;;;;;;5071631;28;20436;-66
2023/01/14 03:30:14;;;;;;;9.73;1.95;;;30.00;72.40;;;;;;5071826;28;20032;-66
2023/01/14 03:32:43;;;;;;;2.70;1.10;;;29.70;73.20;;;;;;5071811;28;20032;-66
2023/01/14 03:35:23;;;;;;;5.55;1.55;;;29.60;74.40;;;;;;5071804;28;20032;-66
2023/01/14 03:37:57;;;;;;;7.00;1.90;;;29.40;75.80;;;;;;5070537;28;20032;-66
2023/01/14 03:40:28;;;;;;;3.28;1.40;;;29.30;76.60;;;;;;5071811;28;20028;-66
2023/01/14 03:43:07;;;;;;;4.38;1.13;;;29.20;75.40;;;;;;5071132;28;20028;-66
2023/01/14 03:45:37;;;;;;;7.65;1.30;;;29.20;75.80;;;;;;5071619;28;20021;-67
2023/01/14 03:48:06;;;;;;;2.55;1.27;;;28.90;77.10;;;;;;5071523;28;20052;-66
2023/01/14 03:50:59;;;;;;;7.05;1.70;;;29.00;76.80;;;;;;5071151;28;20032;-67
2023/01/14 03:53:35;;;;;;;7.78;2.38;;;29.00;77.10;;;;;;5071278;28;20048;-66
2023/01/14 03:56:05;;;;;;;6.40;1.52;;;29.00;77.00;;;;;;5071662;28;20072;-66
2023/01/14 03:58:43;;;;;;;5.43;1.10;;;29.00;79.30;;;;;;5071773;28;20077;-66
2023/01/14 04:01:32;;;;;;;6.18;1.63;;;29.70;76.30;;;;;;5071149;28;20039;-66
2023/01/14 04:04:02;;;;;;;5.95;1.45;;;30.00;74.20;;;;;;5071608;28;20020;-66
2023/01/14 04:06:30;;;;;;;3.30;1.15;;;29.80;74.20;;;;;;5071181;28;20062;-66
2023/01/14 04:08:58;;;;;;;4.00;1.38;;;30.10;75.00;;;;;;5071324;28;20024;-65
2023/01/14 04:11:25;;;;;;;2.38;0.95;;;30.40;74.70;;;;;;5071023;28;20489;-66
2023/01/14 04:16:37;;;;;;;6.80;1.40;;;30.70;72.10;;;;;;5071124;28;20090;-66
2023/01/14 04:19:05;;;;;;;4.18;1.02;;;31.00;70.30;;;;;;5070847;28;20103;-66
2023/01/14 04:21:32;;;;;;;5.65;0.90;;;31.20;68.90;;;;;;5071398;28;20427;-66
2023/01/14 04:23:59;;;;;;;5.88;1.17;;;30.90;68.40;;;;;;5070496;28;20024;-66
2023/01/14 04:26:28;;;;;;;3.97;0.82;;;30.50;71.60;;;;;;5070733;28;20024;-65
2023/01/14 04:28:56;;;;;;;5.70;1.02;;;30.30;69.80;;;;;;5070823;28;20021;-66
2023/01/14 04:31:23;;;;;;;3.45;1.45;;;29.80;73.30;;;;;;5070604;28;20048;-65
2023/01/14 04:33:50;;;;;;;5.57;1.10;;;29.90;74.60;;;;;;5070375;28;20078;-65
2023/01/14 04:36:18;;;;;;;2.70;0.95;;;30.00;73.00;;;;;;5049514;28;20083;-66
2023/01/14 04:38:45;;;;;;;4.68;1.65;;;29.70;71.70;;;;;;5058376;28;20024;-66
2023/01/14 04:44:00;;;;;;;5.63;1.10;;;29.30;73.90;;;;;;5059016;28;20037;-66
2023/01/14 04:46:27;;;;;;;5.22;0.88;;;29.70;74.20;;;;;;5070425;28;20374;-66
2023/01/14 04:48:55;;;;;;;3.58;0.80;;;30.10;73.40;;;;;;5068846;28;20731;-66
2023/01/14 04:51:22;;;;;;;4.38;1.05;;;30.40;71.40;;;;;;5070099;28;20029;-66
2023/01/14 04:53:50;;;;;;;5.03;0.98;;;30.30;71.60;;;;;;5070272;28;20611;-66
2023/01/14 04:56:17;;;;;;;5.05;0.90;;;29.70;72.20;;;;;;5069774;28;20048;-67
2023/01/14 04:58:44;;;;;;;3.70;1.05;;;29.10;74.70;;;;;;5070341;28;20046;-65
2023/01/14 05:01:12;;;;;;;5.72;1.40;;;28.90;76.40;;;;;;5069464;28;20036;-64
2023/01/14 05:03:39;;;;;;;7.32;1.10;;;29.00;75.40;;;;;;5066069;28;20787;-66
2023/01/14 05:06:07;;;;;;;6.60;1.00;;;28.70;77.80;;;;;;5067907;28;20021;-67
2023/01/14 05:08:34;;;;;;;9.57;1.42;;;28.90;77.60;;;;;;5068952;28;20811;-66
2023/01/14 05:11:01;;;;;;;8.38;1.75;;;28.90;76.90;;;;;;5068941;28;20447;-69
2023/01/14 05:13:29;;;;;;;5.00;1.10;;;28.80;76.70;;;;;;5069014;28;20070;-65
2023/01/14 05:16:00;;;;;;;5.28;0.93;;;28.30;77.40;;;;;;5067916;28;20047;-67
2023/01/14 05:18:27;;;;;;;5.43;1.35;;;27.90;79.60;;;;;;5067073;28;20021;-67
2023/01/14 05:20:55;;;;;;;5.47;1.40;;;27.90;80.30;;;;;;5062511;28;20659;-68
2023/01/14 05:23:22;;;;;;;5.68;1.55;;;27.90;80.50;;;;;;5062551;28;20090;-67
2023/01/14 05:25:52;;;;;;;8.90;1.55;;;27.90;80.60;;;;;;5065732;28;20028;-67
2023/01/14 05:28:20;;;;;;;5.68;1.10;;;28.10;80.70;;;;;;5065677;28;20039;-68
2023/01/14 05:30:48;;;;;;;3.42;1.45;;;28.10;79.30;;;;;;5065263;28;20048;-68
2023/01/14 05:33:16;;;;;;;4.60;1.20;;;27.80;81.00;;;;;;5064184;28;20363;-67
2023/01/14 05:35:43;;;;;;;6.72;1.83;;;27.90;81.40;;;;;;5064489;28;20024;-68
2023/01/14 05:38:11;;;;;;;3.67;1.35;;;28.10;79.80;;;;;;5064062;28;20074;-69
2023/01/14 05:40:38;;;;;;;3.90;1.00;;;28.20;80.30;;;;;;5047667;28;20107;-68
2023/01/14 05:45:52;;;;;;;4.97;1.08;;;28.10;78.70;;;;;;5067264;28;20165;-67
2023/01/14 05:48:21;;;;;;;3.20;0.90;;;27.90;80.70;;;;;;5066105;28;20032;-66
2023/01/14 05:50:53;;;;;;;6.13;1.38;;;28.10;80.10;;;;;;5058447;28;20037;-67
2023/01/14 05:53:21;;;;;;;6.68;1.42;;;27.90;80.80;;;;;;5066144;28;20028;-69
2023/01/14 05:55:49;;;;;;;3.13;1.25;;;27.70;81.00;;;;;;5066228;28;20528;-67
2023/01/14 05:58:18;;;;;;;7.63;1.67;;;27.70;81.80;;;;;;5065449;28;20528;-66
2023/01/14 06:06:50;;;;;;;5.03;1.10;;;27.40;82.50;;;;;;5064813;28;20036;-67
2023/01/14 06:09:19;;;;;;;4.47;1.20;;;27.50;83.20;;;;;;5046585;28;20341;-67
2023/01/14 06:12:36;;;;;;;3.95;1.10;;;27.60;83.10;;;;;;5066358;28;20516;-67
2023/01/14 06:14:40;;;;;;;3.40;1.20;;;27.60;83.30;;;;;;5063270;28;20402;-68
2023/01/14 06:17:08;;;;;;;3.25;0.80;;;27.40;83.00;;;;;;5064471;28;20085;-66
2023/01/14 06:19:35;;;;;;;4.13;1.05;;;27.40;84.00;;;;;;5066435;28;20030;-67
2023/01/14 06:22:02;;;;;;;4.22;1.33;;;27.50;84.50;;;;;;5065828;28;20573;-67
2023/01/14 06:24:30;;;;;;;5.88;2.03;;;27.60;81.40;;;;;;5066438;28;20033;-67
2023/01/14 06:26:57;;;;;;;5.03;1.35;;;27.60;80.20;;;;;;5066872;28;20459;-67
2023/01/14 06:29:24;;;;;;;5.38;1.63;;;27.50;80.20;;;;;;5065806;28;20020;-69
2023/01/14 06:31:52;;;;;;;4.47;1.15;;;27.60;80.20;;;;;;5065931;28;20382;-67
2023/01/14 06:34:21;;;;;;;2.35;1.00;;;27.70;81.20;;;;;;5065829;28;20515;-67
2023/01/14 06:36:48;;;;;;;6.07;1.27;;;28.00;80.20;;;;;;5065810;28;20421;-68
2023/01/14 06:39:15;;;;;;;4.50;1.10;;;28.30;78.80;;;;;;5066008;28;20111;-68
2023/01/14 06:41:43;;;;;;;5.05;0.98;;;28.20;79.40;;;;;;5065030;28;20030;-67
2023/01/14 06:44:10;;;;;;;4.07;1.10;;;28.20;79.90;;;;;;5065223;28;20107;-67
2023/01/14 06:46:37;;;;;;;2.85;0.93;;;28.20;78.90;;;;;;5065730;28;20584;-67
2023/01/14 06:49:05;;;;;;;3.83;0.80;;;28.40;79.00;;;;;;5062905;28;20029;-69
2023/01/14 06:51:32;;;;;;;9.00;1.30;;;28.60;79.40;;;;;;5065302;28;20033;-66
2023/01/14 06:53:59;;;;;;;8.20;1.55;;;28.70;78.50;;;;;;5063204;28;20059;-66
2023/01/14 06:56:27;;;;;;;3.70;1.05;;;28.60;78.60;;;;;;5062050;28;20064;-67
2023/01/14 06:58:54;;;;;;;5.78;1.20;;;28.40;78.40;;;;;;5063213;28;20158;-67
2023/01/14 07:01:22;;;;;;;4.63;1.08;;;28.20;79.20;;;;;;5065699;28;20036;-67
2023/01/14 07:03:50;;;;;;;5.30;0.82;;;28.20;79.20;;;;;;5068164;28;20032;-68
2023/01/14 07:06:17;;;;;;;3.50;1.65;;;27.80;79.50;;;;;;5068138;28;20105;-67
2023/01/14 07:08:46;;;;;;;4.68;0.80;;;27.50;81.20;;;;;;5069234;28;20035;-68
2023/01/14 07:11:13;;;;;;;3.97;0.90;;;27.20;82.30;;;;;;5069238;28;20043;-68
2023/01/14 07:13:40;;;;;;;8.30;0.82;;;26.90;83.80;;;;;;5069538;28;20020;-67
2023/01/14 07:16:08;;;;;;;2.00;0.90;;;26.70;85.00;;;;;;5068971;28;20039;-68
2023/01/14 07:18:35;;;;;;;4.05;1.13;;;26.60;85.80;;;;;;5070063;28;20031;-68
2023/01/14 07:21:02;;;;;;;6.25;1.00;;;26.40;86.90;;;;;;5069613;28;20033;-68
2023/01/14 07:23:30;;;;;;;2.20;0.70;;;26.30;87.50;;;;;;5067997;28;20028;-68
2023/01/14 07:25:57;;;;;;;4.70;1.00;;;26.20;89.10;;;;;;5068014;28;20036;-67
2023/01/14 07:28:27;;;;;;;7.32;0.90;;;26.10;90.20;;;;;;5070537;28;20051;-67
2023/01/14 07:30:54;;;;;;;5.55;1.02;;;26.00;90.60;;;;;;5070996;28;20037;-68
2023/01/14 07:33:21;;;;;;;6.55;1.48;;;25.90;90.90;;;;;;5071387;28;20067;-67
2023/01/14 07:35:52;;;;;;;3.80;0.73;;;25.90;91.30;;;;;;5071628;28;20036;-68
2023/01/14 07:38:20;;;;;;;8.95;2.15;;;25.80;91.40;;;;;;5070315;28;20513;-62
2023/01/14 07:40:47;;;;;;;3.95;0.80;;;25.80;92.00;;;;;;5066624;28;20025;-67
2023/01/14 07:43:14;;;;;;;8.57;1.02;;;25.70;92.30;;;;;;5066877;28;21600;-65
2023/01/14 07:45:42;;;;;;;6.15;1.05;;;25.70;92.60;;;;;;5069950;28;20028;-65
2023/01/14 07:48:09;;;;;;;7.30;1.10;;;25.60;92.70;;;;;;5070746;28;20020;-65
2023/01/14 07:50:37;;;;;;;8.52;2.05;;;25.70;92.70;;;;;;5070149;28;20408;-65
2023/01/14 07:53:04;;;;;;;4.68;1.10;;;25.90;92.80;;;;;;5071699;28;20110;-65
2023/01/14 07:55:34;;;;;;;2.72;0.70;;;26.00;92.30;;;;;;5071763;28;20051;-65
2023/01/14 07:58:01;;;;;;;7.97;0.80;;;26.00;91.50;;;;;;5070828;28;20585;-65
2023/01/14 08:00:28;;;;;;;6.63;1.05;;;25.90;90.80;;;;;;5070812;28;20141;-67
2023/01/14 08:02:56;;;;;;;4.53;1.33;;;25.80;91.10;;;;;;5071262;28;20031;-64
2023/01/14 08:05:23;;;;;;;6.25;1.40;;;25.70;91.30;;;;;;5070362;28;20021;-66
2023/01/14 08:07:51;;;;;;;1.25;0.82;;;25.70;91.00;;;;;;5070242;28;20028;-65
2023/01/14 08:10:18;;;;;;;5.90;1.30;;;25.60;90.90;;;;;;5070450;28;20068;-68
2023/01/14 08:12:45;;;;;;;3.80;0.93;;;25.40;91.10;;;;;;5071206;28;20033;-69
2023/01/14 08:15:13;;;;;;;7.13;1.00;;;25.30;91.50;;;;;;5069894;28;20031;-67
2023/01/14 08:17:41;;;;;;;3.38;1.05;;;25.20;92.20;;;;;;5064808;28;20020;-67
2023/01/14 08:20:10;;;;;;;3.10;0.82;;;25.00;92.80;;;;;;5059687;28;20020;-68
2023/01/14 08:22:38;;;;;;;2.80;0.73;;;24.90;93.70;;;;;;5068663;28;20359;-67
2023/01/14 08:25:06;;;;;;;3.20;1.10;;;24.70;94.50;;;;;;5068408;28;20135;-67
2023/01/14 08:27:33;;;;;;;3.75;1.20;;;24.60;95.10;;;;;;5068279;28;20033;-65
2023/01/14 08:30:01;;;;;;;10.05;1.40;;;24.50;95.70;;;;;;5068157;28;20063;-66
2023/01/14 08:32:28;;;;;;;5.35;1.23;;;24.30;96.10;;;;;;5067015;28;20032;-68
2023/01/14 08:34:56;;;;;;;8.05;2.00;;;24.20;96.60;;;;;;5068238;28;20876;-66
2023/01/14 08:37:23;;;;;;;3.92;0.60;;;24.10;96.90;;;;;;5067848;28;20029;-67
2023/01/14 08:39:51;;;;;;;5.22;0.90;;;24.00;97.20;;;;;;5067595;28;20028;-69
2023/01/14 08:42:18;;;;;;;6.10;1.13;;;23.90;97.60;;;;;;5067534;28;20036;-68
2023/01/14 08:44:45;;;;;;;6.10;1.15;;;23.80;98.10;;;;;;5068200;28;20127;-67
2023/01/14 08:47:12;;;;;;;3.47;0.75;;;23.70;98.50;;;;;;5068001;28;20071;-69
2023/01/14 08:49:40;;;;;;;9.65;1.27;;;23.60;98.80;;;;;;5067943;28;20024;-67
2023/01/14 08:52:07;;;;;;;2.97;1.00;;;23.50;99.30;;;;;;5067719;28;20058;-66
2023/01/14 08:54:35;;;;;;;6.10;0.82;;;23.50;99.90;;;;;;5067758;28;20027;-67
2023/01/14 08:57:02;;;;;;;6.20;0.85;;;23.40;99.90;;;;;;5065918;28;20064;-67
2023/01/14 08:59:30;;;;;;;9.38;1.60;;;23.30;99.90;;;;;;5067792;28;20461;-66
2023/01/14 09:01:57;;;;;;;7.22;2.05;;;23.30;99.90;;;;;;5066757;28;20034;-65
2023/01/14 09:04:25;;;;;;;4.40;1.17;;;23.20;99.90;;;;;;5066743;28;20035;-65
2023/01/14 09:18:11;;;;;;;5.25;1.02;;;22.80;99.90;;;;;;5056996;28;20036;-66
2023/01/14 09:20:42;;;;;;;5.88;0.98;;;22.80;99.90;;;;;;5067260;28;20095;-71
2023/01/14 09:23:10;;;;;;;3.75;1.20;;;22.70;99.90;;;;;;5066690;28;20035;-66
2023/01/14 09:25:38;;;;;;;3.78;0.95;;;22.70;99.90;;;;;;5067216;28;20021;-68
2023/01/14 09:28:06;;;;;;;3.42;0.88;;;22.80;99.90;;;;;;5067256;28;20024;-68
2023/01/14 09:30:33;;;;;;;3.85;1.33;;;22.80;99.90;;;;;;5054421;28;20421;-69
2023/01/14 09:33:01;;;;;;;5.43;2.25;;;22.80;99.90;;;;;;5067229;28;20020;-68
2023/01/14 09:35:29;;;;;;;5.45;1.20;;;22.80;99.90;;;;;;5067360;28;20025;-69
2023/01/14 09:37:57;;;;;;;11.32;1.35;;;22.80;99.90;;;;;;5066833;28;20846;-69
2023/01/14 09:40:24;;;;;;;5.30;1.15;;;22.80;99.90;;;;;;5065920;28;20719;-70
2023/01/14 09:42:52;;;;;;;4.75;0.85;;;22.80;99.90;;;;;;5066720;28;20035;-69
2023/01/14 09:45:30;;;;;;;7.47;1.15;;;22.80;99.90;;;;;;5067101;28;20017;-70
2023/01/14 09:48:23;;;;;;;2.97;1.00;;;22.70;99.90;;;;;;5066776;28;20036;-70
2023/01/14 09:51:23;;;;;;;3.55;1.50;;;22.70;99.90;;;;;;5066768;28;20448;-70
2023/01/14 09:54:21;;;;;;;4.60;2.28;;;22.70;99.90;;;;;;5066123;28;20025;-70
2023/01/14 09:57:12;;;;;;;2.45;0.85;;;22.70;99.90;;;;;;5056851;28;20485;-69
2023/01/14 10:00:14;;;;;;;3.67;0.95;;;22.60;99.90;;;;;;5067191;28;20059;-69
2023/01/14 10:02:48;;;;;;;4.25;1.10;;;22.60;99.90;;;;;;5066625;28;20052;-70
2023/01/14 10:05:22;;;;;;;4.30;1.20;;;22.50;99.90;;;;;;5066032;28;20379;-67
2023/01/14 10:07:49;;;;;;;;;;;22.50;99.90;;;;;;5047567;28;20033;-67
2023/01/14 10:10:37;;;;;;;5.88;1.15;;;22.50;99.90;;;;;;5059909;28;19920;-67
2023/01/14 10:13:11;;;;;;;6.30;1.20;;;22.40;99.90;;;;;;5066728;28;20543;-66
2023/01/14 10:15:53;;;;;;;9.50;1.15;;;22.40;99.90;;;;;;5066556;28;20040;-69
2023/01/14 10:18:47;;;;;;;7.75;1.30;;;22.40;99.90;;;;;;5053896;28;20416;-69
2023/01/14 10:21:39;;;;;;;5.18;1.35;;;22.30;99.90;;;;;;5066578;28;20060;-67
2023/01/14 10:24:13;;;;;;;4.70;1.15;;;22.30;99.90;;;;;;5067179;28;20024;-67
2023/01/14 10:26:42;;;;;;;5.70;1.40;;;22.20;99.90;;;;;;5066539;28;20025;-67
2023/01/14 10:29:19;;;;;;;6.60;1.20;;;22.10;99.90;;;;;;5066425;28;20581;-67
2023/01/14 10:31:51;;;;;;;5.90;1.60;;;22.10;99.90;;;;;;5066128;28;20116;-66
2023/01/14 10:34:26;;;;;;;6.40;1.00;;;22.10;99.90;;;;;;5066891;28;20111;-66
2023/01/14 10:36:54;;;;;;;2.95;0.95;;;22.00;99.90;;;;;;5070105;28;20064;-67
2023/01/14 10:39:22;;;;;;;2.72;0.88;;;21.80;99.90;;;;;;5070455;28;20040;-67
2023/01/14 10:41:50;;;;;;;5.32;1.33;;;21.80;99.90;;;;;;5069896;28;20040;-67
2023/01/14 10:44:17;;;;;;;4.00;1.10;;;21.70;99.90;;;;;;5069262;28;20028;-66
2023/01/14 10:46:45;;;;;;;5.70;1.20;;;21.60;99.90;;;;;;5069969;28;20096;-66
2023/01/14 10:49:27;;;;;;;5.95;1.23;;;21.60;99.90;;;;;;5070132;28;20099;-67
2023/01/14 10:51:57;;;;;;;7.20;1.20;;;21.50;99.90;;;;;;5069451;28;20060;-66
2023/01/14 10:54:27;;;;;;;3.67;1.15;;;21.50;99.90;;;;;;5068555;28;20044;-66
2023/01/14 10:56:58;;;;;;;9.27;1.75;;;21.40;99.90;;;;;;5067683;28;20421;-67
2023/01/14 10:59:42;;;;;;;6.43;1.50;;;21.30;99.90;;;;;;5069242;28;20070;-67
2023/01/14 11:02:28;;;;;;;3.85;1.02;;;21.20;99.90;;;;;;5069966;28;20043;-67
2023/01/14 11:04:56;;;;;;;5.40;1.10;;;21.20;99.90;;;;;;5069827;28;20013;-67
2023/01/14 11:07:33;;;;;;;2.72;0.80;;;21.10;99.90;;;;;;5067785;28;20032;-67
2023/01/14 11:10:16;;;;;;;6.13;1.30;;;21.00;99.90;;;;;;5069507;28;20056;-67
2023/01/14 11:12:43;;;;;;;4.10;1.30;;;21.10;99.90;;;;;;5069927;28;20025;-66
2023/01/14 11:15:35;;;;;;;3.78;1.25;;;21.00;99.90;;;;;;5068577;28;20032;-65
2023/01/14 11:18:32;;;;;;;7.97;1.02;;;21.00;99.90;;;;;;5067382;28;20024;-67
2023/01/14 11:21:20;;;;;;;4.60;0.90;;;20.90;99.90;;;;;;5059132;28;20143;-69
2023/01/14 11:24:25;;;;;;;5.00;1.10;;;20.70;99.90;;;;;;5067651;28;20020;-65
2023/01/14 11:27:00;;;;;;;;;;;20.60;99.90;;;;;;5068446;28;20152;-65
2023/01/14 11:29:31;;;;;;;5.15;1.30;;;20.60;99.90;;;;;;5031423;28;20504;-66
2023/01/14 11:32:10;;;;;;;4.60;1.10;;;20.60;99.90;;;;;;5049466;28;20047;-69
2023/01/14 11:34:46;;;;;;;10.48;1.48;;;20.50;99.90;;;;;;5060203;28;20032;-66
2023/01/14 11:37:20;;;;;;;5.85;1.30;;;20.40;99.90;;;;;;5068995;28;20029;-66
2023/01/14 11:39:57;;;;;;;5.97;1.05;;;20.40;99.90;;;;;;5069286;28;20028;-66
2023/01/14 11:42:27;;;;;;;4.70;1.70;;;20.40;99.90;;;;;;5067816;28;20032;-67
2023/01/14 11:45:10;;;;;;;3.67;1.10;;;20.30;99.90;;;;;;5068644;28;20108;-68
2023/01/14 11:47:55;;;;;;;3.90;1.20;;;20.30;99.90;;;;;;5069130;28;20138;-69
2023/01/14 11:50:30;;;;;;;4.78;1.30;;;20.30;99.90;;;;;;5067325;28;20070;-66
2023/01/14 11:53:15;;;;;;;6.90;0.95;;;20.30;99.90;;;;;;5069380;28;20081;-66
2023/01/14 11:55:42;;;;;;;;;;;20.30;99.90;;;;;;5064423;28;20057;-66
2023/01/14 11:58:20;;;;;;;4.97;1.42;;;20.30;99.90;;;;;;5070649;28;19999;-66
2023/01/14 12:00:53;;;;;;;10.95;1.48;;;20.30;99.90;;;;;;5071134;28;20036;-66
2023/01/14 12:03:31;;;;;;;6.50;1.17;;;20.40;99.90;;;;;;5071068;28;20021;-66
2023/01/14 12:05:59;;;;;;;11.30;1.48;;;20.40;99.90;;;;;;5071339;28;20028;-66
2023/01/14 12:08:31;;;;;;;3.42;1.17;;;20.40;99.90;;;;;;5070844;28;20035;-65
2023/01/14 12:11:01;;;;;;;3.35;1.55;;;20.40;99.90;;;;;;5070830;28;20029;-66
2023/01/14 12:16:52;;;;;;;6.95;1.67;;;20.30;99.90;;;;;;5071100;28;20551;-65
2023/01/14 12:19:23;;;;;;;6.20;1.30;;;20.30;99.90;;;;;;5070477;28;20020;-66
2023/01/14 12:22:15;;;;;;;5.25;1.65;;;20.20;99.90;;;;;;5070565;28;20028;-65
2023/01/14 12:24:57;;;;;;;6.35;1.92;;;20.30;99.90;;;;;;5067046;28;20056;-65
2023/01/14 12:27:47;;;;;;;5.75;1.15;;;20.20;99.90;;;;;;5068848;28;20028;-66
2023/01/14 12:30:24;;;;;;;6.53;1.05;;;20.20;99.90;;;;;;5066972;28;20132;-66
2023/01/14 12:32:57;;;;;;;1.77;0.93;;;20.20;99.90;;;;;;5065712;28;20017;-66
2023/01/14 12:35:28;;;;;;;3.22;0.95;;;20.20;99.90;;;;;;5067646;28;20033;-65
2023/01/14 12:38:02;;;;;;;4.07;0.95;;;20.20;99.90;;;;;;5068854;28;20048;-66
2023/01/14 12:46:17;;;;;;;3.45;1.10;;;20.30;99.90;;;;;;5069429;28;20440;-66
2023/01/14 12:48:44;;;;;;;8.80;1.38;;;20.30;99.90;;;;;;5068493;28;20069;-66
2023/01/14 12:51:28;;;;;;;5.57;1.23;;;20.30;99.90;;;;;;5069047;28;20118;-66
2023/01/14 12:54:00;;;;;;;3.93;1.10;;;20.40;99.90;;;;;;5066826;28;20043;-66
2023/01/14 12:56:39;;;;;;;7.60;1.65;;;20.30;99.90;;;;;;5068491;28;20045;-66
2023/01/14 12:59:18;;;;;;;6.45;2.10;;;20.30;99.90;;;;;;5054754;28;20020;-66
2023/01/14 13:02:00;;;;;;;3.38;1.38;;;20.30;99.90;;;;;;5068030;28;20021;-66
2023/01/14 13:04:55;;;;;;;6.28;1.20;;;20.30;99.90;;;;;;5069045;28;20048;-66
2023/01/14 13:07:29;;;;;;;6.07;1.10;;;20.20;99.90;;;;;;5069326;28;20017;-65
2023/01/14 13:10:00;;;;;;;4.72;1.25;;;20.10;99.90;;;;;;5082675;28;20028;-65
2023/01/14 13:12:32;;;;;;;5.93;1.17;;;20.00;99.90;;;;;;5069215;28;20033;-66
2023/01/14 13:15:26;;;;;;;3.70;1.10;;;19.90;99.90;;;;;;5068216;28;20625;-66
2023/01/14 13:17:56;;;;;;;5.18;2.50;;;19.90;99.90;;;;;;5067993;28;20477;-65
2023/01/14 13:20:35;;;;;;;7.68;1.58;;;19.80;99.90;;;;;;5069319;28;20501;-65
2023/01/14 13:23:04;;;;;;;5.63;1.75;;;19.70;99.90;;;;;;5069130;28;20058;-66
2023/01/14 13:25:37;;;;;;;5.22;1.30;;;19.50;99.90;;;;;;5068440;28;20032;-66
2023/01/14 13:28:17;;;;;;;5.75;1.55;;;19.50;99.90;;;;;;5068684;28;20109;-66
2023/01/14 13:31:33;;;;;;;5.68;1.60;;;19.40;99.90;;;;;;5068701;28;20028;-66
2023/01/14 13:34:18;;;;;;;;;;;19.40;99.90;;;;;;5059468;28;20040;-66
2023/01/14 13:36:46;;;;;;;4.55;1.85;;;19.30;99.90;;;;;;5053723;28;20017;-66
2023/01/14 13:39:19;;;;;;;4.65;1.63;;;19.30;99.90;;;;;;5068403;28;20025;-66
2023/01/14 13:41:52;;;;;;;5.68;1.50;;;19.20;99.90;;;;;;5068766;28;20016;-66
2023/01/14 13:44:38;;;;;;;2.00;1.50;;;19.20;99.90;;;;;;5067708;28;20036;-66
2023/01/14 13:47:21;;;;;;;7.50;2.00;;;19.20;99.90;;;;;;5068197;28;20029;-66
2023/01/14 13:50:01;;;;;;;4.38;1.42;;;19.20;99.90;;;;;;5068359;28;20083;-67
2023/01/14 13:52:32;;;;;;;4.10;1.48;;;19.20;99.90;;;;;;5067856;28;20036;-66
2023/01/14 13:55:28;;;;;;;7.80;2.08;;;19.20;99.90;;;;;;5066647;28;20041;-66